Letohatchee, Alabama
Current Conditions -  °F | °C
As of 4:53 AM on Wednesday 22 Oct 2014 (Local Time) from KMGM Reporting Station
Clear Clear  
Wind Chill: 52°   Ceiling: Unl
Heat Index: 52°   Visibility: 10mi
Dew Point: 50°   Wind: 7mph
Humidity: 93%   Direction: 10°N
Pressure: 30.06"   Gusts: NA
Location:  32.13°N, 86.49°W
Report Text: KMGM 220953Z AUTO 01006KT 10SM CLR 11/10 A3006 RMK AO2 SLP177 T01110100
Loading
Personal Weather Stations






























Interactive Weather Map
Tropical Storm Tracking
New forecast layout! Learn more

10-Day Weather Forecast

Advertisements
Track Severe Weather on mobile